ADDS METAR Data INFO
IDs: Format: Raw Decoded Include TAF

Data at: 0937 UTC 25 Nov 2017

KUTS 250853Z AUTO 00000KT 10SM CLR 13/08 A2992 RMK AO2 SLP130 T01280078 53005
KUTS 250753Z AUTO 17005KT 10SM CLR 13/08 A2991 RMK AO2 SLP127 T01330078
KUTS 250653Z AUTO 18004KT 10SM CLR 12/08 A2991 RMK AO2 SLP126 T01220083
KUTS 250553Z AUTO 16003KT 10SM CLR 13/08 A2991 RMK AO2 SLP125 T01280078 10172 20122 402170050 51003
KUTS 250453Z AUTO 17005KT 10SM CLR 14/08 A2991 RMK AO2 SLP125 T01390078
KUTS 250353Z AUTO 17005KT 10SM CLR 14/07 A2991 RMK AO2 SLP125 T01390072
KUTS 250253Z AUTO 16007KT 10SM CLR 15/07 A2990 RMK AO2 SLP123 T01500067 53004
KUTS 250153Z AUTO 16005KT 10SM CLR 16/04 A2989 RMK AO2 SLP121 T01610044
KUTS 250053Z AUTO 17003KT 10SM CLR 14/05 A2989 RMK AO2 SLP121 T01440050
KUTS 242353Z AUTO 15003KT 10SM CLR 17/05 A2989 RMK AO2 SLP119 T01720050 10217 20172 56009
KUTS 242253Z AUTO 17004KT 10SM CLR 19/04 A2989 RMK AO2 SLP121 T01940044
KUTS 242153Z AUTO 17008KT 10SM CLR 21/04 A2990 RMK AO2 SLP122 T02110039
KUTS 242053Z AUTO 17009G14KT 10SM CLR 22/04 A2992 RMK AO2 SLP129 T02170044 56030
KUTS 241953Z AUTO VRB06KT 10SM CLR 22/04 A2994 RMK AO2 SLP135 T02170044
KUTS 241853Z AUTO 19008KT 10SM CLR 21/04 A2996 RMK AO2 SLP144 T02060039
KUTS 241753Z AUTO 20006KT 10SM CLR 19/03 A3001 RMK AO2 SLP159 T01940033 10194 20067 58011
KUTS 241653Z AUTO 20008KT 10SM CLR 17/04 A3002 RMK AO2 SLP165 T01720039
KUTS 241553Z AUTO 19010KT 10SM CLR 16/05 A3003 RMK AO2 SLP168 T01560050
KUTS 241453Z AUTO 19007KT 10SM CLR 13/04 A3004 RMK AO2 SLP171 T01280044 51009
KUTS 241353Z AUTO 19005KT 10SM CLR 09/03 A3003 RMK AO2 SLP169 T00890033
KUTS 241253Z AUTO 18005KT 10SM CLR 07/02 A3003 RMK AO2 SLP167 T00670022
KUTS 241153Z AUTO 18004KT 10SM CLR 07/02 A3001 RMK AO2 SLP162 T00720022 10078 20050 56005
KUTS 241053Z AUTO 18003KT 10SM CLR 07/03 A3001 RMK AO2 SLP161 T00670028
KUTS 240953Z AUTO 18003KT 10SM CLR 07/03 A3002 RMK AO2 SLP164 T00670028
KUTS 240853Z AUTO 18003KT 10SM CLR 07/03 A3003 RMK AO2 SLP166 T00670028 58013
KUTS 240753Z AUTO 19003KT 10SM CLR 06/02 A3004 RMK AO2 SLP171 T00610022
KUTS 240653Z AUTO 19005KT 10SM CLR 08/02 A3006 RMK AO2 SLP177 T00780022
KUTS 240553Z AUTO 00000KT 10SM CLR 07/02 A3006 RMK AO2 SLP179 T00720017 10117 20067 401780006 58008
KUTS 240453Z AUTO 00000KT 10SM CLR 07/03 A3008 RMK AO2 SLP185 T00670028
KUTS 240353Z AUTO 00000KT 10SM CLR 08/03 A3009 RMK AO2 SLP188 T00780028
KUTS 240253Z AUTO 21003KT 10SM CLR 08/03 A3009 RMK AO2 SLP189 T00830028 53002
KUTS 240153Z AUTO 00000KT 10SM CLR 09/03 A3008 RMK AO2 SLP187 T00940033
KUTS 240053Z AUTO 00000KT 10SM CLR 10/03 A3009 RMK AO2 SLP188 T01000028
KUTS 232353Z AUTO 00000KT 10SM CLR 12/02 A3008 RMK AO2 SLP187 T01170022 10178 20111 55002
KUTS 232253Z AUTO 30003KT 10SM CLR 16/01 A3008 RMK AO2 SLP185 T01610006
KUTS 232153Z AUTO 00000KT 10SM CLR 18/01 A3008 RMK AO2 SLP186 T01780006